sensor_id;sensor_type;location;lat;lon;timestamp;P1;durP1;ratioP1;P2;durP2;ratioP2
39426;SDS011;25938;48.470;1.486;2022-08-19T00:01:30;4.90;;;4.20;;
39426;SDS011;25938;48.470;1.486;2022-08-19T00:03:57;3.90;;;3.60;;
39426;SDS011;25938;48.470;1.486;2022-08-19T00:06:23;5.05;;;3.92;;
39426;SDS011;25938;48.470;1.486;2022-08-19T00:08:49;5.63;;;3.50;;
39426;SDS011;25938;48.470;1.486;2022-08-19T00:11:16;5.38;;;4.18;;
39426;SDS011;25938;48.470;1.486;2022-08-19T00:13:42;4.30;;;3.90;;
39426;SDS011;25938;48.470;1.486;2022-08-19T00:16:08;6.03;;;4.03;;
39426;SDS011;25938;48.470;1.486;2022-08-19T00:18:34;5.78;;;3.83;;
39426;SDS011;25938;48.470;1.486;2022-08-19T00:21:00;4.20;;;3.80;;
39426;SDS011;25938;48.470;1.486;2022-08-19T00:23:27;4.53;;;4.13;;
39426;SDS011;25938;48.470;1.486;2022-08-19T00:25:53;3.40;;;2.97;;
39426;SDS011;25938;48.470;1.486;2022-08-19T00:28:19;4.43;;;3.53;;
39426;SDS011;25938;48.470;1.486;2022-08-19T00:30:45;5.53;;;4.13;;
39426;SDS011;25938;48.470;1.486;2022-08-19T00:33:11;4.90;;;4.40;;
39426;SDS011;25938;48.470;1.486;2022-08-19T00:35:38;4.68;;;3.47;;
39426;SDS011;25938;48.470;1.486;2022-08-19T00:38:04;5.57;;;4.00;;
39426;SDS011;25938;48.470;1.486;2022-08-19T00:40:32;5.45;;;3.70;;
39426;SDS011;25938;48.470;1.486;2022-08-19T00:42:58;4.65;;;4.25;;
39426;SDS011;25938;48.470;1.486;2022-08-19T00:45:25;5.43;;;4.35;;
39426;SDS011;25938;48.470;1.486;2022-08-19T00:47:51;5.18;;;4.07;;
39426;SDS011;25938;48.470;1.486;2022-08-19T00:50:18;4.10;;;3.45;;
39426;SDS011;25938;48.470;1.486;2022-08-19T00:52:45;3.63;;;3.33;;
39426;SDS011;25938;48.470;1.486;2022-08-19T00:55:30;4.72;;;3.60;;
39426;SDS011;25938;48.470;1.486;2022-08-19T00:58:07;4.60;;;4.20;;
39426;SDS011;25938;48.470;1.486;2022-08-19T01:00:34;4.38;;;3.97;;
39426;SDS011;25938;48.470;1.486;2022-08-19T01:03:02;3.53;;;2.95;;
39426;SDS011;25938;48.470;1.486;2022-08-19T01:05:29;5.55;;;3.97;;
39426;SDS011;25938;48.470;1.486;2022-08-19T01:07:56;4.32;;;3.92;;
39426;SDS011;25938;48.470;1.486;2022-08-19T01:10:25;4.43;;;3.88;;
39426;SDS011;25938;48.470;1.486;2022-08-19T01:12:51;4.72;;;3.67;;
39426;SDS011;25938;48.470;1.486;2022-08-19T01:15:21;7.47;;;4.03;;
39426;SDS011;25938;48.470;1.486;2022-08-19T01:17:48;5.60;;;4.30;;
39426;SDS011;25938;48.470;1.486;2022-08-19T01:20:17;7.50;;;4.45;;
39426;SDS011;25938;48.470;1.486;2022-08-19T01:22:45;4.75;;;4.35;;
39426;SDS011;25938;48.470;1.486;2022-08-19T01:25:13;5.30;;;4.55;;
39426;SDS011;25938;48.470;1.486;2022-08-19T01:27:40;7.25;;;5.15;;
39426;SDS011;25938;48.470;1.486;2022-08-19T01:30:07;5.80;;;4.03;;
39426;SDS011;25938;48.470;1.486;2022-08-19T01:32:33;4.00;;;3.70;;
39426;SDS011;25938;48.470;1.486;2022-08-19T01:35:00;5.80;;;4.40;;
39426;SDS011;25938;48.470;1.486;2022-08-19T01:37:27;6.50;;;5.22;;
39426;SDS011;25938;48.470;1.486;2022-08-19T01:39:55;4.65;;;4.20;;
39426;SDS011;25938;48.470;1.486;2022-08-19T01:42:21;5.57;;;4.07;;
39426;SDS011;25938;48.470;1.486;2022-08-19T01:44:47;7.20;;;5.53;;
39426;SDS011;25938;48.470;1.486;2022-08-19T01:47:13;6.63;;;4.97;;
39426;SDS011;25938;48.470;1.486;2022-08-19T01:49:40;5.70;;;5.18;;
39426;SDS011;25938;48.470;1.486;2022-08-19T01:52:06;6.63;;;4.82;;
39426;SDS011;25938;48.470;1.486;2022-08-19T01:54:32;4.82;;;4.32;;
39426;SDS011;25938;48.470;1.486;2022-08-19T01:57:03;5.90;;;4.15;;
39426;SDS011;25938;48.470;1.486;2022-08-19T01:59:30;5.45;;;4.30;;
39426;SDS011;25938;48.470;1.486;2022-08-19T02:01:57;5.32;;;4.85;;
39426;SDS011;25938;48.470;1.486;2022-08-19T02:04:23;8.38;;;4.45;;
39426;SDS011;25938;48.470;1.486;2022-08-19T02:06:50;4.80;;;4.40;;
39426;SDS011;25938;48.470;1.486;2022-08-19T02:09:16;5.95;;;4.60;;
39426;SDS011;25938;48.470;1.486;2022-08-19T02:11:42;6.57;;;4.63;;
39426;SDS011;25938;48.470;1.486;2022-08-19T02:14:09;6.30;;;4.60;;
39426;SDS011;25938;48.470;1.486;2022-08-19T02:16:35;5.88;;;4.53;;
39426;SDS011;25938;48.470;1.486;2022-08-19T02:19:01;6.40;;;4.60;;
39426;SDS011;25938;48.470;1.486;2022-08-19T02:21:27;6.43;;;4.90;;
39426;SDS011;25938;48.470;1.486;2022-08-19T02:23:54;6.93;;;4.60;;
39426;SDS011;25938;48.470;1.486;2022-08-19T02:26:20;5.47;;;4.63;;
39426;SDS011;25938;48.470;1.486;2022-08-19T02:28:46;5.65;;;4.45;;
39426;SDS011;25938;48.470;1.486;2022-08-19T02:31:14;5.38;;;4.88;;
39426;SDS011;25938;48.470;1.486;2022-08-19T02:33:40;5.25;;;4.30;;
39426;SDS011;25938;48.470;1.486;2022-08-19T02:36:07;6.35;;;4.95;;
39426;SDS011;25938;48.470;1.486;2022-08-19T02:38:33;7.45;;;4.25;;
39426;SDS011;25938;48.470;1.486;2022-08-19T02:41:04;5.20;;;4.70;;
39426;SDS011;25938;48.470;1.486;2022-08-19T02:43:32;6.18;;;5.53;;
39426;SDS011;25938;48.470;1.486;2022-08-19T02:46:10;6.07;;;4.57;;
39426;SDS011;25938;48.470;1.486;2022-08-19T02:48:36;6.90;;;4.60;;
39426;SDS011;25938;48.470;1.486;2022-08-19T02:51:02;6.72;;;6.03;;
39426;SDS011;25938;48.470;1.486;2022-08-19T02:53:30;6.82;;;4.68;;
39426;SDS011;25938;48.470;1.486;2022-08-19T02:55:56;5.93;;;4.80;;
39426;SDS011;25938;48.470;1.486;2022-08-19T02:58:22;7.57;;;4.80;;
39426;SDS011;25938;48.470;1.486;2022-08-19T03:00:51;5.38;;;4.53;;
39426;SDS011;25938;48.470;1.486;2022-08-19T03:03:17;5.28;;;4.78;;
39426;SDS011;25938;48.470;1.486;2022-08-19T03:05:44;8.18;;;5.75;;
39426;SDS011;25938;48.470;1.486;2022-08-19T03:08:11;6.65;;;5.47;;
39426;SDS011;25938;48.470;1.486;2022-08-19T03:10:41;7.97;;;6.03;;
39426;SDS011;25938;48.470;1.486;2022-08-19T03:13:09;8.02;;;5.90;;
39426;SDS011;25938;48.470;1.486;2022-08-19T03:15:38;6.07;;;5.47;;
39426;SDS011;25938;48.470;1.486;2022-08-19T03:18:04;8.18;;;5.60;;
39426;SDS011;25938;48.470;1.486;2022-08-19T03:20:30;6.40;;;5.50;;
39426;SDS011;25938;48.470;1.486;2022-08-19T03:22:56;6.25;;;5.65;;
39426;SDS011;25938;48.470;1.486;2022-08-19T03:25:22;5.45;;;4.93;;
39426;SDS011;25938;48.470;1.486;2022-08-19T03:27:49;7.50;;;4.75;;
39426;SDS011;25938;48.470;1.486;2022-08-19T03:30:15;7.13;;;5.22;;
39426;SDS011;25938;48.470;1.486;2022-08-19T03:32:41;6.13;;;4.78;;
39426;SDS011;25938;48.470;1.486;2022-08-19T03:35:08;14.98;;;13.75;;
39426;SDS011;25938;48.470;1.486;2022-08-19T03:37:34;5.60;;;5.03;;
39426;SDS011;25938;48.470;1.486;2022-08-19T03:40:00;6.82;;;4.28;;
39426;SDS011;25938;48.470;1.486;2022-08-19T03:42:28;6.50;;;4.78;;
39426;SDS011;25938;48.470;1.486;2022-08-19T03:44:54;6.00;;;4.45;;
39426;SDS011;25938;48.470;1.486;2022-08-19T03:47:20;6.07;;;4.63;;
39426;SDS011;25938;48.470;1.486;2022-08-19T03:49:47;5.07;;;4.57;;
39426;SDS011;25938;48.470;1.486;2022-08-19T03:52:13;6.40;;;5.65;;
39426;SDS011;25938;48.470;1.486;2022-08-19T03:54:40;6.53;;;4.90;;
39426;SDS011;25938;48.470;1.486;2022-08-19T03:57:06;6.60;;;5.55;;
39426;SDS011;25938;48.470;1.486;2022-08-19T03:59:35;6.95;;;6.03;;
39426;SDS011;25938;48.470;1.486;2022-08-19T04:02:03;7.20;;;6.40;;
39426;SDS011;25938;48.470;1.486;2022-08-19T04:04:33;7.30;;;5.40;;
39426;SDS011;25938;48.470;1.486;2022-08-19T04:06:59;6.68;;;5.13;;
39426;SDS011;25938;48.470;1.486;2022-08-19T04:09:25;7.43;;;6.07;;
39426;SDS011;25938;48.470;1.486;2022-08-19T04:11:53;7.75;;;5.45;;
39426;SDS011;25938;48.470;1.486;2022-08-19T04:14:23;9.13;;;4.95;;
39426;SDS011;25938;48.470;1.486;2022-08-19T04:16:50;5.55;;;4.95;;
39426;SDS011;25938;48.470;1.486;2022-08-19T04:19:16;4.68;;;4.30;;
39426;SDS011;25938;48.470;1.486;2022-08-19T04:21:44;5.00;;;4.05;;
39426;SDS011;25938;48.470;1.486;2022-08-19T04:24:10;5.30;;;4.75;;
39426;SDS011;25938;48.470;1.486;2022-08-19T04:26:36;6.30;;;4.38;;
39426;SDS011;25938;48.470;1.486;2022-08-19T04:29:07;5.43;;;3.85;;
39426;SDS011;25938;48.470;1.486;2022-08-19T04:31:33;5.32;;;4.80;;
39426;SDS011;25938;48.470;1.486;2022-08-19T04:34:00;6.28;;;4.45;;
39426;SDS011;25938;48.470;1.486;2022-08-19T04:36:29;5.40;;;4.90;;
39426;SDS011;25938;48.470;1.486;2022-08-19T04:38:56;6.25;;;4.82;;
39426;SDS011;25938;48.470;1.486;2022-08-19T04:41:22;6.53;;;4.05;;
39426;SDS011;25938;48.470;1.486;2022-08-19T04:44:07;5.95;;;5.13;;
39426;SDS011;25938;48.470;1.486;2022-08-19T04:46:33;5.78;;;4.35;;
39426;SDS011;25938;48.470;1.486;2022-08-19T04:48:59;6.78;;;4.90;;
39426;SDS011;25938;48.470;1.486;2022-08-19T04:51:26;6.18;;;4.63;;
39426;SDS011;25938;48.470;1.486;2022-08-19T04:53:52;5.35;;;4.03;;
39426;SDS011;25938;48.470;1.486;2022-08-19T04:56:19;5.80;;;4.65;;
39426;SDS011;25938;48.470;1.486;2022-08-19T04:58:51;4.53;;;4.13;;
39426;SDS011;25938;48.470;1.486;2022-08-19T05:01:18;4.88;;;4.18;;
39426;SDS011;25938;48.470;1.486;2022-08-19T05:03:44;6.78;;;4.07;;
39426;SDS011;25938;48.470;1.486;2022-08-19T05:06:14;4.18;;;3.78;;
39426;SDS011;25938;48.470;1.486;2022-08-19T05:08:41;4.85;;;3.67;;
39426;SDS011;25938;48.470;1.486;2022-08-19T05:11:22;5.68;;;3.95;;
39426;SDS011;25938;48.470;1.486;2022-08-19T05:13:48;5.65;;;3.58;;
39426;SDS011;25938;48.470;1.486;2022-08-19T05:16:16;3.30;;;3.00;;
39426;SDS011;25938;48.470;1.486;2022-08-19T05:18:42;5.25;;;2.85;;
39426;SDS011;25938;48.470;1.486;2022-08-19T05:21:27;5.65;;;2.60;;
39426;SDS011;25938;48.470;1.486;2022-08-19T05:24:12;3.60;;;2.85;;
39426;SDS011;25938;48.470;1.486;2022-08-19T05:26:39;3.42;;;2.55;;
39426;SDS011;25938;48.470;1.486;2022-08-19T05:29:06;3.20;;;2.40;;
39426;SDS011;25938;48.470;1.486;2022-08-19T05:31:32;3.03;;;2.55;;
39426;SDS011;25938;48.470;1.486;2022-08-19T05:33:59;2.75;;;2.53;;
39426;SDS011;25938;48.470;1.486;2022-08-19T05:36:25;6.32;;;2.85;;
39426;SDS011;25938;48.470;1.486;2022-08-19T05:38:52;4.68;;;2.92;;
39426;SDS011;25938;48.470;1.486;2022-08-19T05:41:18;3.45;;;2.50;;
39426;SDS011;25938;48.470;1.486;2022-08-19T05:43:45;3.67;;;3.13;;
39426;SDS011;25938;48.470;1.486;2022-08-19T05:46:17;3.40;;;2.72;;
39426;SDS011;25938;48.470;1.486;2022-08-19T05:48:44;3.20;;;2.50;;
39426;SDS011;25938;48.470;1.486;2022-08-19T05:51:10;5.78;;;2.17;;
39426;SDS011;25938;48.470;1.486;2022-08-19T05:53:36;4.50;;;4.20;;
39426;SDS011;25938;48.470;1.486;2022-08-19T05:56:06;3.45;;;2.75;;
39426;SDS011;25938;48.470;1.486;2022-08-19T05:58:32;3.85;;;3.20;;
39426;SDS011;25938;48.470;1.486;2022-08-19T06:00:59;3.22;;;2.58;;
39426;SDS011;25938;48.470;1.486;2022-08-19T06:03:29;2.72;;;2.38;;
39426;SDS011;25938;48.470;1.486;2022-08-19T06:05:57;5.13;;;2.35;;
39426;SDS011;25938;48.470;1.486;2022-08-19T06:08:24;2.90;;;2.20;;
39426;SDS011;25938;48.470;1.486;2022-08-19T06:10:50;2.95;;;2.67;;
39426;SDS011;25938;48.470;1.486;2022-08-19T06:13:16;4.13;;;2.25;;
39426;SDS011;25938;48.470;1.486;2022-08-19T06:15:45;3.60;;;2.00;;
39426;SDS011;25938;48.470;1.486;2022-08-19T06:18:11;3.15;;;2.22;;
39426;SDS011;25938;48.470;1.486;2022-08-19T06:20:37;3.38;;;2.00;;
39426;SDS011;25938;48.470;1.486;2022-08-19T06:23:03;2.47;;;2.28;;
39426;SDS011;25938;48.470;1.486;2022-08-19T06:25:29;2.30;;;2.10;;
39426;SDS011;25938;48.470;1.486;2022-08-19T06:27:55;4.63;;;2.03;;
39426;SDS011;25938;48.470;1.486;2022-08-19T06:30:22;2.05;;;1.70;;
39426;SDS011;25938;48.470;1.486;2022-08-19T06:32:48;3.38;;;2.05;;
39426;SDS011;25938;48.470;1.486;2022-08-19T06:35:14;3.90;;;2.10;;
39426;SDS011;25938;48.470;1.486;2022-08-19T06:37:40;3.17;;;1.80;;
39426;SDS011;25938;48.470;1.486;2022-08-19T06:40:07;3.42;;;2.33;;
39426;SDS011;25938;48.470;1.486;2022-08-19T06:42:35;3.17;;;2.00;;
39426;SDS011;25938;48.470;1.486;2022-08-19T06:45:03;2.88;;;1.52;;
39426;SDS011;25938;48.470;1.486;2022-08-19T06:47:30;1.73;;;1.50;;
39426;SDS011;25938;48.470;1.486;2022-08-19T06:50:00;3.28;;;1.73;;
39426;SDS011;25938;48.470;1.486;2022-08-19T06:52:29;2.25;;;1.83;;
39426;SDS011;25938;48.470;1.486;2022-08-19T06:54:55;2.47;;;1.40;;
39426;SDS011;25938;48.470;1.486;2022-08-19T06:57:21;2.55;;;1.90;;
39426;SDS011;25938;48.470;1.486;2022-08-19T06:59:47;1.40;;;1.23;;
39426;SDS011;25938;48.470;1.486;2022-08-19T07:02:13;3.92;;;1.90;;
39426;SDS011;25938;48.470;1.486;2022-08-19T07:04:39;1.95;;;1.50;;
39426;SDS011;25938;48.470;1.486;2022-08-19T07:07:10;1.73;;;1.35;;
39426;SDS011;25938;48.470;1.486;2022-08-19T07:09:38;3.25;;;1.70;;
39426;SDS011;25938;48.470;1.486;2022-08-19T07:12:05;2.10;;;1.23;;
39426;SDS011;25938;48.470;1.486;2022-08-19T07:14:32;1.55;;;1.23;;
39426;SDS011;25938;48.470;1.486;2022-08-19T07:17:02;2.60;;;1.75;;
39426;SDS011;25938;48.470;1.486;2022-08-19T07:19:28;1.90;;;1.33;;
39426;SDS011;25938;48.470;1.486;2022-08-19T07:21:55;3.17;;;1.50;;
39426;SDS011;25938;48.470;1.486;2022-08-19T07:24:22;1.90;;;1.70;;
39426;SDS011;25938;48.470;1.486;2022-08-19T07:26:49;2.63;;;1.80;;
39426;SDS011;25938;48.470;1.486;2022-08-19T07:29:16;1.98;;;1.52;;
39426;SDS011;25938;48.470;1.486;2022-08-19T07:31:43;3.60;;;1.27;;
39426;SDS011;25938;48.470;1.486;2022-08-19T07:34:10;3.05;;;1.60;;
39426;SDS011;25938;48.470;1.486;2022-08-19T07:36:39;3.35;;;1.75;;
39426;SDS011;25938;48.470;1.486;2022-08-19T07:39:10;3.20;;;1.50;;
39426;SDS011;25938;48.470;1.486;2022-08-19T07:41:37;2.13;;;1.50;;
39426;SDS011;25938;48.470;1.486;2022-08-19T07:44:04;2.35;;;1.95;;
39426;SDS011;25938;48.470;1.486;2022-08-19T07:46:33;2.30;;;1.55;;
39426;SDS011;25938;48.470;1.486;2022-08-19T07:48:59;2.30;;;1.23;;
39426;SDS011;25938;48.470;1.486;2022-08-19T07:51:26;1.83;;;1.30;;
39426;SDS011;25938;48.470;1.486;2022-08-19T07:53:52;2.30;;;1.60;;
39426;SDS011;25938;48.470;1.486;2022-08-19T07:56:19;2.75;;;1.55;;
39426;SDS011;25938;48.470;1.486;2022-08-19T07:58:46;1.48;;;1.35;;
39426;SDS011;25938;48.470;1.486;2022-08-19T08:01:20;1.75;;;1.23;;
39426;SDS011;25938;48.470;1.486;2022-08-19T08:03:46;1.83;;;1.52;;
39426;SDS011;25938;48.470;1.486;2022-08-19T08:06:31;3.08;;;1.63;;
39426;SDS011;25938;48.470;1.486;2022-08-19T08:09:17;3.40;;;1.40;;
39426;SDS011;25938;48.470;1.486;2022-08-19T08:11:49;2.22;;;1.80;;
39426;SDS011;25938;48.470;1.486;2022-08-19T08:14:17;3.08;;;1.55;;
39426;SDS011;25938;48.470;1.486;2022-08-19T08:16:44;4.45;;;1.75;;
39426;SDS011;25938;48.470;1.486;2022-08-19T08:19:11;1.33;;;1.15;;
39426;SDS011;25938;48.470;1.486;2022-08-19T08:21:38;3.08;;;1.70;;
39426;SDS011;25938;48.470;1.486;2022-08-19T08:24:04;2.53;;;1.55;;
39426;SDS011;25938;48.470;1.486;2022-08-19T08:26:30;2.28;;;1.38;;
39426;SDS011;25938;48.470;1.486;2022-08-19T08:28:56;3.10;;;1.42;;
39426;SDS011;25938;48.470;1.486;2022-08-19T08:31:22;1.30;;;1.13;;
39426;SDS011;25938;48.470;1.486;2022-08-19T08:33:48;1.73;;;1.45;;
39426;SDS011;25938;48.470;1.486;2022-08-19T08:36:14;1.95;;;1.23;;
39426;SDS011;25938;48.470;1.486;2022-08-19T08:38:42;2.33;;;1.05;;
39426;SDS011;25938;48.470;1.486;2022-08-19T08:41:13;2.53;;;1.20;;
39426;SDS011;25938;48.470;1.486;2022-08-19T08:43:44;1.45;;;1.30;;
39426;SDS011;25938;48.470;1.486;2022-08-19T08:46:19;2.72;;;1.23;;
39426;SDS011;25938;48.470;1.486;2022-08-19T08:51:35;2.55;;;1.60;;
39426;SDS011;25938;48.470;1.486;2022-08-19T08:54:04;1.90;;;1.55;;
39426;SDS011;25938;48.470;1.486;2022-08-19T08:56:31;3.50;;;1.08;;
39426;SDS011;25938;48.470;1.486;2022-08-19T08:58:59;4.30;;;1.58;;
39426;SDS011;25938;48.470;1.486;2022-08-19T09:01:27;1.80;;;1.27;;
39426;SDS011;25938;48.470;1.486;2022-08-19T09:03:53;3.28;;;1.38;;
39426;SDS011;25938;48.470;1.486;2022-08-19T09:09:05;3.00;;;1.70;;
39426;SDS011;25938;48.470;1.486;2022-08-19T09:14:32;1.77;;;1.60;;
39426;SDS011;25938;48.470;1.486;2022-08-19T09:16:58;2.08;;;1.60;;
39426;SDS011;25938;48.470;1.486;2022-08-19T09:19:25;2.00;;;1.55;;
39426;SDS011;25938;48.470;1.486;2022-08-19T09:21:51;1.73;;;1.35;;
39426;SDS011;25938;48.470;1.486;2022-08-19T09:24:17;6.90;;;1.85;;
39426;SDS011;25938;48.470;1.486;2022-08-19T09:26:43;1.45;;;1.20;;
39426;SDS011;25938;48.470;1.486;2022-08-19T09:29:09;4.57;;;2.03;;
39426;SDS011;25938;48.470;1.486;2022-08-19T09:31:36;1.40;;;1.30;;
39426;SDS011;25938;48.470;1.486;2022-08-19T09:34:02;1.55;;;1.10;;
39426;SDS011;25938;48.470;1.486;2022-08-19T09:36:29;2.97;;;0.82;;
39426;SDS011;25938;48.470;1.486;2022-08-19T09:38:57;3.58;;;1.63;;
39426;SDS011;25938;48.470;1.486;2022-08-19T09:41:25;3.22;;;1.30;;
39426;SDS011;25938;48.470;1.486;2022-08-19T09:43:52;2.80;;;1.02;;
39426;SDS011;25938;48.470;1.486;2022-08-19T09:46:20;4.38;;;1.10;;
39426;SDS011;25938;48.470;1.486;2022-08-19T09:48:46;1.75;;;1.15;;
39426;SDS011;25938;48.470;1.486;2022-08-19T09:51:18;0.93;;;0.68;;
39426;SDS011;25938;48.470;1.486;2022-08-19T09:53:45;1.45;;;1.00;;
39426;SDS011;25938;48.470;1.486;2022-08-19T09:56:12;0.65;;;0.60;;
39426;SDS011;25938;48.470;1.486;2022-08-19T09:58:38;1.20;;;0.82;;
39426;SDS011;25938;48.470;1.486;2022-08-19T10:01:05;0.80;;;0.73;;
39426;SDS011;25938;48.470;1.486;2022-08-19T10:03:32;2.00;;;0.75;;
39426;SDS011;25938;48.470;1.486;2022-08-19T10:05:59;1.52;;;1.05;;
39426;SDS011;25938;48.470;1.486;2022-08-19T10:08:27;1.75;;;0.93;;
39426;SDS011;25938;48.470;1.486;2022-08-19T10:10:54;2.33;;;0.95;;
39426;SDS011;25938;48.470;1.486;2022-08-19T10:13:22;2.42;;;1.35;;
39426;SDS011;25938;48.470;1.486;2022-08-19T10:15:50;0.73;;;0.73;;
39426;SDS011;25938;48.470;1.486;2022-08-19T10:18:17;1.15;;;0.80;;
39426;SDS011;25938;48.470;1.486;2022-08-19T10:20:44;1.98;;;1.15;;
39426;SDS011;25938;48.470;1.486;2022-08-19T10:23:10;0.88;;;0.77;;
39426;SDS011;25938;48.470;1.486;2022-08-19T10:25:37;1.40;;;0.75;;
39426;SDS011;25938;48.470;1.486;2022-08-19T10:28:03;1.83;;;0.70;;
39426;SDS011;25938;48.470;1.486;2022-08-19T10:30:31;1.05;;;0.80;;
39426;SDS011;25938;48.470;1.486;2022-08-19T10:32:57;1.65;;;0.57;;
39426;SDS011;25938;48.470;1.486;2022-08-19T10:35:23;1.52;;;0.57;;
39426;SDS011;25938;48.470;1.486;2022-08-19T10:37:54;0.60;;;0.60;;
39426;SDS011;25938;48.470;1.486;2022-08-19T10:40:24;0.75;;;0.55;;
39426;SDS011;25938;48.470;1.486;2022-08-19T10:42:50;0.40;;;0.30;;
39426;SDS011;25938;48.470;1.486;2022-08-19T10:45:16;1.13;;;0.50;;
39426;SDS011;25938;48.470;1.486;2022-08-19T10:47:42;0.77;;;0.30;;
39426;SDS011;25938;48.470;1.486;2022-08-19T10:50:08;1.17;;;0.30;;
39426;SDS011;25938;48.470;1.486;2022-08-19T10:52:53;0.30;;;0.20;;
39426;SDS011;25938;48.470;1.486;2022-08-19T10:55:20;0.25;;;0.15;;
39426;SDS011;25938;48.470;1.486;2022-08-19T10:58:13;1.00;;;0.20;;
39426;SDS011;25938;48.470;1.486;2022-08-19T11:00:39;1.15;;;0.13;;
39426;SDS011;25938;48.470;1.486;2022-08-19T11:03:05;0.25;;;0.20;;
39426;SDS011;25938;48.470;1.486;2022-08-19T11:05:31;2.38;;;0.57;;
39426;SDS011;25938;48.470;1.486;2022-08-19T11:07:57;0.20;;;0.20;;
39426;SDS011;25938;48.470;1.486;2022-08-19T11:10:23;0.73;;;0.40;;
39426;SDS011;25938;48.470;1.486;2022-08-19T11:12:49;1.05;;;0.10;;
39426;SDS011;25938;48.470;1.486;2022-08-19T11:15:19;0.22;;;0.10;;
39426;SDS011;25938;48.470;1.486;2022-08-19T11:17:45;0.32;;;0.10;;
39426;SDS011;25938;48.470;1.486;2022-08-19T11:20:12;0.60;;;0.22;;
39426;SDS011;25938;48.470;1.486;2022-08-19T11:22:39;0.43;;;0.32;;
39426;SDS011;25938;48.470;1.486;2022-08-19T11:25:05;0.40;;;0.10;;
39426;SDS011;25938;48.470;1.486;2022-08-19T11:27:31;0.93;;;0.35;;
39426;SDS011;25938;48.470;1.486;2022-08-19T11:29:58;0.30;;;0.30;;
39426;SDS011;25938;48.470;1.486;2022-08-19T11:32:25;2.42;;;0.30;;
39426;SDS011;25938;48.470;1.486;2022-08-19T11:34:52;0.88;;;0.20;;
39426;SDS011;25938;48.470;1.486;2022-08-19T11:37:18;0.65;;;0.22;;
39426;SDS011;25938;48.470;1.486;2022-08-19T11:39:44;0.95;;;0.30;;
39426;SDS011;25938;48.470;1.486;2022-08-19T11:42:10;1.30;;;0.30;;
39426;SDS011;25938;48.470;1.486;2022-08-19T11:44:55;0.98;;;0.40;;
39426;SDS011;25938;48.470;1.486;2022-08-19T11:47:21;0.30;;;0.20;;
39426;SDS011;25938;48.470;1.486;2022-08-19T11:49:48;0.57;;;0.15;;
39426;SDS011;25938;48.470;1.486;2022-08-19T11:52:15;0.95;;;0.10;;
39426;SDS011;25938;48.470;1.486;2022-08-19T11:54:41;0.63;;;0.10;;
39426;SDS011;25938;48.470;1.486;2022-08-19T11:57:07;0.17;;;0.10;;
39426;SDS011;25938;48.470;1.486;2022-08-19T11:59:33;0.28;;;0.10;;
39426;SDS011;25938;48.470;1.486;2022-08-19T12:01:59;0.13;;;0.00;;
39426;SDS011;25938;48.470;1.486;2022-08-19T12:04:25;0.20;;;0.10;;
39426;SDS011;25938;48.470;1.486;2022-08-19T12:06:51;1.08;;;0.20;;
39426;SDS011;25938;48.470;1.486;2022-08-19T12:09:17;0.10;;;0.00;;
39426;SDS011;25938;48.470;1.486;2022-08-19T12:11:44;0.50;;;0.30;;
39426;SDS011;25938;48.470;1.486;2022-08-19T12:14:10;0.20;;;0.10;;
39426;SDS011;25938;48.470;1.486;2022-08-19T12:16:39;0.47;;;0.13;;
39426;SDS011;25938;48.470;1.486;2022-08-19T12:19:06;0.17;;;0.10;;
39426;SDS011;25938;48.470;1.486;2022-08-19T12:21:33;1.25;;;0.20;;
39426;SDS011;25938;48.470;1.486;2022-08-19T12:24:00;0.70;;;0.25;;
39426;SDS011;25938;48.470;1.486;2022-08-19T12:26:27;1.55;;;0.30;;
39426;SDS011;25938;48.470;1.486;2022-08-19T12:28:53;0.60;;;0.20;;
39426;SDS011;25938;48.470;1.486;2022-08-19T12:31:19;0.22;;;0.10;;
39426;SDS011;25938;48.470;1.486;2022-08-19T12:33:46;0.30;;;0.15;;
39426;SDS011;25938;48.470;1.486;2022-08-19T12:36:13;0.52;;;0.25;;
39426;SDS011;25938;48.470;1.486;2022-08-19T12:38:40;0.32;;;0.30;;
39426;SDS011;25938;48.470;1.486;2022-08-19T12:41:08;1.50;;;0.20;;
39426;SDS011;25938;48.470;1.486;2022-08-19T12:43:35;0.77;;;0.10;;
39426;SDS011;25938;48.470;1.486;2022-08-19T12:46:03;1.40;;;0.40;;
39426;SDS011;25938;48.470;1.486;2022-08-19T12:48:29;0.93;;;0.20;;
39426;SDS011;25938;48.470;1.486;2022-08-19T12:50:55;1.23;;;0.75;;
39426;SDS011;25938;48.470;1.486;2022-08-19T12:53:21;1.02;;;0.20;;
39426;SDS011;25938;48.470;1.486;2022-08-19T12:55:47;0.20;;;0.10;;
39426;SDS011;25938;48.470;1.486;2022-08-19T12:58:14;1.55;;;0.30;;
39426;SDS011;25938;48.470;1.486;2022-08-19T13:00:40;0.85;;;0.20;;
39426;SDS011;25938;48.470;1.486;2022-08-19T13:03:06;2.10;;;0.40;;
39426;SDS011;25938;48.470;1.486;2022-08-19T13:05:32;0.40;;;0.10;;
39426;SDS011;25938;48.470;1.486;2022-08-19T13:07:59;1.10;;;0.25;;
39426;SDS011;25938;48.470;1.486;2022-08-19T13:10:30;0.52;;;0.10;;
39426;SDS011;25938;48.470;1.486;2022-08-19T13:13:00;0.68;;;0.05;;
39426;SDS011;25938;48.470;1.486;2022-08-19T13:15:26;1.58;;;0.13;;
39426;SDS011;25938;48.470;1.486;2022-08-19T13:17:53;0.30;;;0.30;;
39426;SDS011;25938;48.470;1.486;2022-08-19T13:20:20;0.80;;;0.20;;
39426;SDS011;25938;48.470;1.486;2022-08-19T13:22:47;0.47;;;0.32;;
39426;SDS011;25938;48.470;1.486;2022-08-19T13:25:13;0.45;;;0.13;;
39426;SDS011;25938;48.470;1.486;2022-08-19T13:27:42;0.20;;;0.20;;
39426;SDS011;25938;48.470;1.486;2022-08-19T13:30:08;0.73;;;0.20;;
39426;SDS011;25938;48.470;1.486;2022-08-19T13:32:53;0.45;;;0.22;;
39426;SDS011;25938;48.470;1.486;2022-08-19T13:35:39;0.30;;;0.20;;
39426;SDS011;25938;48.470;1.486;2022-08-19T13:38:05;0.30;;;0.10;;
39426;SDS011;25938;48.470;1.486;2022-08-19T13:40:32;0.22;;;0.00;;
39426;SDS011;25938;48.470;1.486;2022-08-19T13:42:59;0.47;;;0.47;;
39426;SDS011;25938;48.470;1.486;2022-08-19T13:45:27;0.30;;;0.22;;
39426;SDS011;25938;48.470;1.486;2022-08-19T13:47:54;0.40;;;0.15;;
39426;SDS011;25938;48.470;1.486;2022-08-19T13:50:22;0.52;;;0.52;;
39426;SDS011;25938;48.470;1.486;2022-08-19T13:52:50;0.20;;;0.20;;
39426;SDS011;25938;48.470;1.486;2022-08-19T13:55:17;1.08;;;0.85;;
39426;SDS011;25938;48.470;1.486;2022-08-19T13:57:43;0.50;;;0.10;;
39426;SDS011;25938;48.470;1.486;2022-08-19T14:00:12;1.13;;;0.10;;
39426;SDS011;25938;48.470;1.486;2022-08-19T14:02:39;0.20;;;0.00;;
39426;SDS011;25938;48.470;1.486;2022-08-19T14:05:06;0.75;;;0.10;;
39426;SDS011;25938;48.470;1.486;2022-08-19T14:07:32;0.52;;;0.10;;
39426;SDS011;25938;48.470;1.486;2022-08-19T14:09:58;1.27;;;0.10;;
39426;SDS011;25938;48.470;1.486;2022-08-19T14:12:25;0.95;;;0.10;;
39426;SDS011;25938;48.470;1.486;2022-08-19T14:14:51;0.57;;;0.00;;
39426;SDS011;25938;48.470;1.486;2022-08-19T14:17:17;0.22;;;0.10;;
39426;SDS011;25938;48.470;1.486;2022-08-19T14:19:43;3.80;;;0.63;;
39426;SDS011;25938;48.470;1.486;2022-08-19T14:22:09;0.30;;;0.10;;
39426;SDS011;25938;48.470;1.486;2022-08-19T14:24:36;0.40;;;0.30;;
39426;SDS011;25938;48.470;1.486;2022-08-19T14:27:04;0.70;;;0.20;;
39426;SDS011;25938;48.470;1.486;2022-08-19T14:29:30;0.63;;;0.20;;
39426;SDS011;25938;48.470;1.486;2022-08-19T14:31:56;0.10;;;0.10;;
39426;SDS011;25938;48.470;1.486;2022-08-19T14:34:24;0.30;;;0.20;;
39426;SDS011;25938;48.470;1.486;2022-08-19T14:36:50;0.30;;;0.30;;
39426;SDS011;25938;48.470;1.486;2022-08-19T14:39:17;0.50;;;0.40;;
39426;SDS011;25938;48.470;1.486;2022-08-19T14:41:43;0.50;;;0.40;;
39426;SDS011;25938;48.470;1.486;2022-08-19T14:44:10;0.63;;;0.28;;
39426;SDS011;25938;48.470;1.486;2022-08-19T14:46:38;1.23;;;0.60;;
39426;SDS011;25938;48.470;1.486;2022-08-19T14:49:04;1.27;;;0.30;;
39426;SDS011;25938;48.470;1.486;2022-08-19T14:51:30;1.73;;;0.55;;
39426;SDS011;25938;48.470;1.486;2022-08-19T14:53:56;1.05;;;0.80;;
39426;SDS011;25938;48.470;1.486;2022-08-19T14:56:24;1.42;;;0.57;;
39426;SDS011;25938;48.470;1.486;2022-08-19T14:58:50;4.07;;;0.75;;